createdAt,value
2019-02-07T05:43:40.714Z,32.88
2019-02-07T05:46:26.499Z,30.85
2019-02-07T05:49:25.087Z,27.22
2019-02-07T05:52:08.639Z,28.50
2019-02-07T05:55:02.851Z,28.02
2019-02-07T05:57:40.812Z,27.10
2019-02-07T06:00:28.523Z,25.23
2019-02-07T06:03:11.878Z,24.95
2019-02-07T06:05:59.090Z,25.00
2019-02-07T06:08:56.580Z,25.37
2019-02-07T06:11:47.887Z,25.77
2019-02-07T06:14:48.131Z,23.57
2019-02-07T06:17:48.546Z,22.67
2019-02-07T06:20:43.127Z,25.43
2019-02-07T06:23:32.787Z,22.73
2019-02-07T06:26:19.844Z,24.47
2019-02-07T06:29:00.664Z,23.83
2019-02-07T06:31:58.243Z,24.02
2019-02-07T06:34:58.967Z,22.87
2019-02-07T06:37:46.100Z,22.67
2019-02-07T06:40:38.543Z,20.95
2019-02-07T06:43:32.632Z,19.87
2019-02-07T06:46:30.184Z,19.90
2019-02-07T06:49:12.600Z,19.02
2019-02-07T06:51:59.681Z,22.02
2019-02-07T06:54:57.856Z,20.68
2019-02-07T06:57:45.965Z,20.55
2019-02-07T07:00:35.221Z,20.70
2019-02-07T07:03:27.733Z,19.40
2019-02-07T07:06:21.758Z,19.98
2019-02-07T07:09:02.667Z,20.00
2019-02-07T07:11:42.646Z,21.68
2019-02-07T07:14:37.445Z,21.52
2019-02-07T07:17:33.366Z,20.52
2019-02-07T07:20:24.773Z,20.60
2019-02-07T07:23:25.090Z,21.17
2019-02-07T07:26:15.297Z,21.15
2019-02-07T07:29:03.895Z,20.65
2019-02-07T07:31:55.210Z,19.73
2019-02-07T07:34:46.319Z,19.10
2019-02-07T07:37:40.749Z,18.85
2019-02-07T07:40:29.369Z,18.77
2019-02-07T07:43:23.938Z,19.98
2019-02-07T07:46:10.973Z,17.97
2019-02-07T07:48:58.526Z,19.02
2019-02-07T07:51:49.739Z,18.95
2019-02-07T07:54:39.984Z,17.67
2019-02-07T07:57:27.468Z,19.10
2019-02-07T08:00:14.499Z,18.50
2019-02-07T08:03:02.818Z,18.80
2019-02-07T08:05:54.949Z,17.50
2019-02-07T08:08:44.014Z,17.70
2019-02-07T08:11:36.342Z,17.17
2019-02-07T08:14:14.820Z,18.17
2019-02-07T08:17:09.186Z,17.30
2019-02-07T08:19:56.580Z,17.87
2019-02-07T08:22:47.992Z,17.43
2019-02-07T08:25:51.630Z,18.03
2019-02-07T08:28:42.825Z,18.87
2019-02-07T08:31:25.029Z,18.13
2019-02-07T08:34:11.058Z,18.67
2019-02-07T08:37:14.456Z,19.33
2019-02-07T08:40:14.815Z,18.27
2019-02-07T08:43:02.065Z,18.97
2019-02-07T08:45:50.271Z,19.33
2019-02-07T08:48:42.170Z,19.47
2019-02-07T08:51:28.954Z,20.27
2019-02-07T08:54:18.751Z,21.13
2019-02-07T08:57:11.357Z,20.37
2019-02-07T08:59:59.659Z,20.87
2019-02-07T09:02:51.803Z,20.60
2019-02-07T09:05:40.602Z,21.43
2019-02-07T09:08:41.233Z,21.17
2019-02-07T09:11:28.464Z,20.40
2019-02-07T09:14:24.596Z,21.43
2019-02-07T09:17:14.595Z,22.47
2019-02-07T09:20:12.095Z,23.67
2019-02-07T09:23:06.874Z,23.80
2019-02-07T09:25:53.806Z,25.20
2019-02-07T09:28:40.681Z,24.47
2019-02-07T09:31:27.756Z,24.00
2019-02-07T09:34:07.669Z,20.97
2019-02-07T09:36:58.727Z,21.03
2019-02-07T09:39:45.564Z,22.70
2019-02-07T09:42:26.688Z,21.37
2019-02-07T09:45:24.410Z,21.57
2019-02-07T09:48:07.920Z,22.53
2019-02-07T09:50:54.706Z,22.87
2019-02-07T09:53:45.732Z,21.60
2019-02-07T09:56:32.855Z,22.20
2019-02-07T09:59:21.162Z,21.30
2019-02-07T10:01:58.635Z,23.20
2019-02-07T10:04:49.919Z,22.27
2019-02-07T10:07:47.169Z,23.53
2019-02-07T10:10:34.725Z,22.83
2019-02-07T10:13:38.621Z,22.97
2019-02-07T10:16:26.060Z,22.90
2019-02-07T10:19:20.337Z,22.57
2019-02-07T10:22:02.117Z,22.30
2019-02-07T10:24:49.134Z,21.40
2019-02-07T10:27:36.220Z,21.17
2019-02-07T10:30:26.663Z,21.40
2019-02-07T10:33:29.924Z,21.03
2019-02-07T10:36:23.662Z,22.83
2019-02-07T10:39:06.872Z,23.73
2019-02-07T10:42:13.220Z,22.17
2019-02-07T10:45:16.608Z,22.10
2019-02-07T10:48:03.544Z,23.43
2019-02-07T10:50:43.406Z,23.90
2019-02-07T11:05:06.276Z,25.53
2019-02-07T11:08:01.908Z,23.20
2019-02-07T11:10:58.116Z,23.37
2019-02-07T11:13:58.555Z,23.03
2019-02-07T11:16:45.624Z,24.27
2019-02-07T11:19:32.605Z,24.00
2019-02-07T11:22:22.995Z,24.67
2019-02-07T11:25:12.668Z,24.37
2019-02-07T11:27:51.029Z,24.97
2019-02-07T11:30:38.174Z,25.63
2019-02-07T11:33:14.198Z,25.90
2019-02-07T11:36:08.235Z,25.13
2019-02-07T11:38:55.288Z,25.47
2019-02-07T11:41:46.975Z,23.80
2019-02-07T11:44:38.872Z,24.03
2019-02-07T11:47:39.440Z,23.83
2019-02-07T11:50:42.093Z,23.77
2019-02-07T11:53:33.224Z,23.20
2019-02-07T11:56:30.635Z,23.93
2019-02-07T11:59:33.102Z,26.17
2019-02-07T12:02:33.618Z,23.00
2019-02-07T12:05:39.987Z,24.10
2019-02-07T12:08:37.486Z,24.57
2019-02-07T12:11:23.931Z,23.77
2019-02-07T12:14:10.761Z,22.80
2019-02-07T12:17:02.716Z,22.47
2019-02-07T12:19:49.763Z,22.63
2019-02-07T12:22:37.441Z,23.37
2019-02-07T12:25:25.959Z,22.43
2019-02-07T12:28:11.949Z,22.33
2019-02-07T12:30:59.062Z,21.50
2019-02-07T12:33:39.753Z,22.00
2019-02-07T12:36:26.957Z,20.87
2019-02-07T12:39:05.605Z,21.10
2019-02-07T12:41:51.792Z,20.27
2019-02-07T12:44:49.152Z,22.33
2019-02-07T12:47:37.436Z,21.20
2019-02-07T12:50:25.419Z,21.73
2019-02-07T12:53:11.599Z,21.37
2019-02-07T12:55:58.764Z,20.63
2019-02-07T12:59:02.827Z,21.23
2019-02-07T13:02:00.292Z,20.87
2019-02-07T13:04:49.634Z,20.90
2019-02-07T13:07:47.265Z,20.93
2019-02-07T13:10:39.069Z,21.20
2019-02-07T13:13:16.771Z,21.17
2019-02-07T13:16:16.969Z,20.87
2019-02-07T13:19:08.133Z,21.27
2019-02-07T13:22:01.079Z,20.90
2019-02-07T13:24:47.552Z,21.50
2019-02-07T13:27:29.067Z,21.33
2019-02-07T13:30:16.021Z,22.87
2019-02-07T13:33:10.693Z,22.47
2019-02-07T13:35:52.748Z,22.10
2019-02-07T13:38:41.012Z,22.80
2019-02-07T13:41:38.276Z,21.93
2019-02-07T13:44:29.617Z,20.57
2019-02-07T13:47:29.816Z,21.40
2019-02-07T13:50:21.547Z,20.57
2019-02-07T13:53:21.881Z,21.60
2019-02-07T13:56:11.603Z,22.63
2019-02-07T13:58:59.905Z,22.33
2019-02-07T14:01:49.296Z,20.80
2019-02-07T14:04:37.520Z,22.67
2019-02-07T14:07:39.899Z,22.10
2019-02-07T14:10:30.365Z,22.07
2019-02-07T14:13:17.946Z,22.57
2019-02-07T14:16:04.754Z,22.27
2019-02-07T14:18:53.066Z,22.97
2019-02-07T14:21:38.012Z,24.30
2019-02-07T14:24:22.023Z,24.60
2019-02-07T14:27:19.201Z,25.47
2019-02-07T14:30:16.458Z,25.70
2019-02-07T14:33:07.748Z,25.33
2019-02-07T14:36:09.815Z,26.00
2019-02-07T14:38:58.115Z,25.87
2019-02-07T14:41:52.205Z,26.20
2019-02-07T14:44:44.553Z,26.77
2019-02-07T14:47:14.217Z,26.80
2019-02-07T14:49:43.437Z,27.77
2019-02-07T14:52:13.643Z,27.40
2019-02-07T14:54:42.851Z,26.87
2019-02-07T14:57:12.149Z,28.03
2019-02-07T14:59:41.501Z,30.20
2019-02-07T15:02:10.886Z,30.40
2019-02-07T15:04:40.082Z,28.80
2019-02-07T15:07:09.342Z,30.50
2019-02-07T15:09:40.783Z,29.00
2019-02-07T15:12:09.969Z,31.10
2019-02-07T15:14:39.342Z,31.20
2019-02-07T15:17:09.188Z,29.30
2019-02-07T15:19:38.383Z,30.67
2019-02-07T15:22:09.245Z,30.07
2019-02-07T15:24:38.417Z,31.43
2019-02-07T15:27:07.657Z,31.00
2019-02-07T15:29:36.942Z,30.93
2019-02-07T15:32:06.546Z,32.10
2019-02-07T15:34:35.854Z,31.10
2019-02-07T15:37:05.416Z,33.90
2019-02-07T15:39:34.937Z,35.43
2019-02-07T15:42:04.704Z,32.70
2019-02-07T15:44:34.195Z,33.53
2019-02-07T15:47:03.576Z,34.27
2019-02-07T15:49:32.750Z,34.57
2019-02-07T15:52:01.962Z,35.37
2019-02-07T15:54:31.812Z,33.33
2019-02-07T15:57:01.159Z,36.33
2019-02-07T15:59:45.110Z,35.53
2019-02-07T16:02:36.115Z,37.90
2019-02-07T16:05:09.139Z,36.60
2019-02-07T16:07:38.982Z,35.67
2019-02-07T16:10:12.041Z,36.23
2019-02-07T16:12:41.352Z,37.60
2019-02-07T16:15:11.984Z,38.83
2019-02-07T16:17:41.562Z,37.33
2019-02-07T16:20:14.805Z,36.77
2019-02-07T16:22:44.498Z,35.10
2019-02-07T16:25:14.990Z,37.13
2019-02-07T16:27:44.306Z,37.30
2019-02-07T16:30:15.333Z,35.80
2019-02-07T16:32:45.227Z,36.90
2019-02-07T16:35:15.984Z,37.33
2019-02-07T16:37:45.340Z,36.53
2019-02-07T16:40:15.680Z,35.90
2019-02-07T16:42:45.035Z,35.87
2019-02-07T16:45:17.597Z,35.97
2019-02-07T16:47:46.866Z,36.17
2019-02-07T16:50:18.134Z,35.90
2019-02-07T16:52:47.640Z,36.67
2019-02-07T16:55:17.538Z,42.30
2019-02-07T16:57:47.188Z,36.83
2019-02-07T17:00:19.921Z,38.80
2019-02-07T17:02:49.269Z,40.37
2019-02-07T17:05:21.292Z,41.13
2019-02-07T17:07:50.602Z,38.77
2019-02-07T17:10:22.535Z,37.57
2019-02-07T17:12:53.175Z,39.60
2019-02-07T17:15:22.822Z,36.60
2019-02-07T17:17:52.549Z,34.70
2019-02-07T17:20:27.059Z,32.00
2019-02-07T17:22:56.849Z,35.77
2019-02-07T17:25:27.611Z,39.33
2019-02-07T17:27:56.931Z,36.97
2019-02-07T17:30:26.229Z,35.40
2019-02-07T17:32:55.805Z,35.30
2019-02-07T17:35:26.110Z,34.93
2019-02-07T17:37:55.410Z,34.00
2019-02-07T17:40:25.504Z,36.10
2019-02-07T17:42:55.219Z,35.20
2019-02-07T17:45:26.396Z,31.93
2019-02-07T17:47:55.978Z,25.57
2019-02-07T17:50:28.106Z,22.30
2019-02-07T17:52:57.899Z,19.53
2019-02-07T17:55:28.042Z,17.63
2019-02-07T17:57:57.399Z,16.30
2019-02-07T18:00:40.146Z,16.20
2019-02-07T18:03:09.425Z,14.87
2019-02-07T18:05:38.747Z,13.40
2019-02-07T18:08:08.736Z,13.67
2019-02-07T18:10:38.165Z,12.30
2019-02-07T18:13:08.332Z,11.07
2019-02-07T18:15:37.538Z,10.57
2019-02-07T18:18:07.288Z,9.10
2019-02-07T18:20:36.542Z,8.10
2019-02-07T18:23:06.416Z,7.80
2019-02-07T18:25:35.978Z,7.30
2019-02-07T18:28:05.682Z,7.87
2019-02-07T18:30:34.989Z,5.73
2019-02-07T18:33:04.782Z,5.13
2019-02-07T18:35:34.058Z,5.30
2019-02-07T18:38:03.345Z,5.00
2019-02-07T18:40:32.650Z,5.00
2019-02-07T18:43:03.233Z,5.17
2019-02-07T18:45:32.533Z,4.57
2019-02-07T18:48:01.858Z,4.47
2019-02-07T18:50:34.103Z,4.50
2019-02-07T18:53:03.650Z,4.47
2019-02-07T18:55:33.000Z,4.70
2019-02-07T18:58:03.272Z,4.50
2019-02-07T19:00:35.522Z,3.90
2019-02-07T19:03:06.839Z,4.03
2019-02-07T19:05:36.925Z,3.60
2019-02-07T19:08:06.879Z,3.93
2019-02-07T19:10:36.591Z,3.67
2019-02-07T19:13:06.201Z,3.80
2019-02-07T19:15:38.979Z,3.73
2019-02-07T19:18:08.344Z,3.60
2019-02-07T19:20:37.814Z,3.73
2019-02-07T19:23:07.822Z,4.13
2019-02-07T19:25:37.226Z,3.90
2019-02-07T19:28:07.700Z,4.30
2019-02-07T19:30:37.071Z,4.17
2019-02-07T19:33:06.792Z,4.10
2019-02-07T19:35:37.655Z,4.27
2019-02-07T19:38:07.615Z,4.37
2019-02-07T19:40:37.481Z,4.37
2019-02-07T19:43:06.791Z,4.47
2019-02-07T19:45:36.171Z,5.00
2019-02-07T19:48:06.024Z,5.97
2019-02-07T19:50:35.229Z,9.37
2019-02-07T19:53:04.908Z,7.77
2019-02-07T19:55:35.216Z,8.00
2019-02-07T19:58:05.171Z,7.70
2019-02-07T20:00:35.288Z,7.27
2019-02-07T20:03:05.193Z,8.33
2019-02-07T20:05:34.689Z,8.50
2019-02-07T20:08:04.419Z,7.87
2019-02-07T20:10:34.319Z,9.37
2019-02-07T20:13:03.620Z,9.47
2019-02-07T20:15:38.407Z,6.90
2019-02-07T20:18:09.889Z,6.60
2019-02-07T20:20:39.786Z,6.80
2019-02-07T20:23:09.139Z,6.80
2019-02-07T20:25:40.554Z,7.27
2019-02-07T20:28:09.862Z,7.20
2019-02-07T20:30:41.296Z,7.40
2019-02-07T20:33:11.304Z,7.30
2019-02-07T20:35:40.589Z,7.43
2019-02-07T20:38:11.187Z,7.87
2019-02-07T20:40:40.487Z,7.77
2019-02-07T20:43:09.997Z,7.73
2019-02-07T20:45:39.309Z,8.67
2019-02-07T20:48:10.103Z,10.30
2019-02-07T20:50:39.351Z,9.83
2019-02-07T20:53:10.568Z,10.37
2019-02-07T20:55:41.026Z,9.53
2019-02-07T20:58:10.613Z,9.10
2019-02-07T21:00:40.210Z,9.20
2019-02-07T21:03:09.898Z,10.07
2019-02-07T21:05:39.777Z,9.40
2019-02-07T21:08:09.130Z,9.47
2019-02-07T21:10:39.010Z,9.17
2019-02-07T21:13:10.013Z,9.00
2019-02-07T21:15:39.435Z,9.13
2019-02-07T21:18:10.355Z,9.33
2019-02-07T21:20:39.622Z,10.27
2019-02-07T21:23:08.915Z,10.47
2019-02-07T21:25:44.429Z,10.67
2019-02-07T21:28:13.795Z,11.37
2019-02-07T21:30:43.255Z,10.60
2019-02-07T21:33:12.844Z,10.83
2019-02-07T21:35:42.502Z,12.03
2019-02-07T21:38:11.827Z,11.97
2019-02-07T21:40:41.254Z,11.83
2019-02-07T21:43:10.906Z,12.00
2019-02-07T21:45:40.271Z,13.10
2019-02-07T21:48:11.332Z,12.73
2019-02-07T21:50:40.717Z,12.50
2019-02-07T21:53:09.969Z,14.20
2019-02-07T21:55:39.315Z,13.47
2019-02-07T21:58:09.592Z,14.13
2019-02-07T22:00:41.134Z,12.50
2019-02-07T22:03:12.742Z,12.40
2019-02-07T22:05:43.270Z,11.40
2019-02-07T22:08:12.795Z,16.37
2019-02-07T22:10:41.972Z,14.40
2019-02-07T22:13:11.652Z,14.50
2019-02-07T22:15:40.821Z,15.17
2019-02-07T22:18:11.252Z,15.60
2019-02-07T22:20:40.498Z,15.77
2019-02-07T22:23:09.763Z,15.53
2019-02-07T22:25:39.104Z,17.40
2019-02-07T22:28:09.839Z,16.87
